Time;durP1;ratioP1;P1;durP2;ratioP2;P2;SDS_P1;SDS_P2;PMS_P1;PMS_P2;Temp;Humidity;BMP_temperature;BMP_pressure;BME280_temperature;BME280_humidity;BME280_pressure;Samples;Min_cycle;Max_cycle;Signal;HPM_P1;HPM_P2
2023/02/17 11:52:32;;;;;;;13.70;7.10;;;;;;;5.75;100.00;100894.61;109104;1256;75471;-82
2023/02/17 11:55:27;;;;;;;16.20;7.80;;;;;;;5.65;100.00;100892.27;109093;1257;69902;-82
2023/02/17 11:58:43;;;;;;;19.70;7.50;;;;;;;5.60;100.00;100898.23;109147;1257;72940;-82
2023/02/17 12:01:53;;;;;;;17.40;7.90;;;;;;;5.59;100.00;100899.68;109097;1255;60486;-82
2023/02/17 12:05:00;;;;;;;17.20;7.90;;;;;;;5.59;100.00;100900.50;109104;1255;61296;-82
2023/02/17 12:08:27;;;;;;;18.40;9.20;;;;;;;5.63;100.00;100899.75;109157;1257;75384;-82
2023/02/17 12:11:31;;;;;;;21.90;10.50;;;;;;;5.63;100.00;100903.24;109109;1257;70529;-82
2023/02/17 12:14:41;;;;;;;23.10;11.30;;;;;;;5.66;100.00;100900.31;109139;1254;73610;-82
2023/02/17 12:18:03;;;;;;;20.60;9.90;;;;;;;5.63;100.00;100902.40;109086;1256;62432;-81
2023/02/17 12:21:07;;;;;;;25.30;10.70;;;;;;;5.58;100.00;100901.98;109153;1256;60114;-82
2023/02/17 12:24:23;;;;;;;19.10;9.60;;;;;;;5.49;100.00;100900.69;109109;1255;75622;-82
2023/02/17 12:27:17;;;;;;;19.00;9.30;;;;;;;5.46;100.00;100899.82;109038;1256;68476;-82
2023/02/17 12:30:15;;;;;;;15.90;8.30;;;;;;;5.53;100.00;100899.81;109064;1256;73891;-83
2023/02/17 12:33:14;;;;;;;18.60;8.70;;;;;;;5.57;100.00;100896.98;109094;1254;60501;-82
2023/02/17 12:36:05;;;;;;;24.20;11.00;;;;;;;5.73;100.00;100896.84;108965;1257;60388;-87
2023/02/17 12:38:57;;;;;;;19.00;8.20;;;;;;;5.75;100.00;100898.90;109064;1256;75604;-86
2023/02/17 12:41:52;;;;;;;19.00;9.20;;;;;;;5.74;100.00;100900.62;108939;1255;68713;-87
2023/02/17 12:44:48;;;;;;;20.90;9.00;;;;;;;5.74;100.00;100900.58;108969;1254;75069;-87
2023/02/17 12:47:45;;;;;;;18.50;8.50;;;;;;;5.76;100.00;100909.45;109012;1256;59633;-87
2023/02/17 12:50:49;;;;;;;17.60;8.80;;;;;;;5.81;100.00;100906.42;109003;1254;61562;-88
2023/02/17 12:53:51;;;;;;;20.10;8.50;;;;;;;5.79;100.00;100904.33;108911;1256;75611;-87
2023/02/17 12:56:47;;;;;;;20.60;9.20;;;;;;;5.69;100.00;100909.98;109157;1256;70031;-87
2023/02/17 12:59:43;;;;;;;18.50;8.10;;;;;;;5.65;100.00;100914.13;109127;1256;73204;-87
2023/02/17 13:02:33;;;;;;;17.10;7.70;;;;;;;5.64;100.00;100914.41;109040;1254;61917;-86
2023/02/17 13:05:25;;;;;;;15.90;7.90;;;;;;;5.58;100.00;100920.41;109066;1259;62372;-87
2023/02/17 13:08:32;;;;;;;17.60;7.60;;;;;;;5.55;100.00;100922.20;109120;1256;76159;-88
2023/02/17 13:11:30;;;;;;;18.40;8.40;;;;;;;5.47;100.00;100917.81;109164;1256;68874;-86
2023/02/17 13:14:27;;;;;;;13.30;7.10;;;;;;;5.44;100.00;100921.11;109079;1254;73938;-86
2023/02/17 13:17:29;;;;;;;13.40;6.80;;;;;;;5.39;100.00;100923.00;109123;1255;62107;-86
2023/02/17 13:20:18;;;;;;;14.50;6.30;;;;;;;5.29;100.00;100924.38;109153;1255;61195;-87
2023/02/17 13:23:10;;;;;;;14.20;7.60;;;;;;;5.28;100.00;100919.30;109123;1256;73318;-86
2023/02/17 13:26:18;;;;;;;13.90;6.70;;;;;;;5.23;100.00;100919.83;108970;1258;68785;-87
2023/02/17 13:29:31;;;;;;;13.70;6.00;;;;;;;5.25;100.00;100922.14;109018;1255;74823;-86
2023/02/17 13:32:25;;;;;;;;;;;;;;;5.22;100.00;100923.32;109025;1255;59668;-87
2023/02/17 13:35:28;;;;;;;15.90;7.40;;;;;;;5.18;100.00;100925.73;108980;1259;61278;-87
2023/02/17 13:38:30;;;;;;;15.50;7.70;;;;;;;5.15;100.00;100924.83;109171;1254;75875;-87
2023/02/17 13:41:18;;;;;;;18.70;7.60;;;;;;;5.12;100.00;100925.46;109149;1256;68838;-88
2023/02/17 13:44:24;;;;;;;14.40;7.30;;;;;;;5.01;100.00;100929.04;109110;1256;74023;-87
2023/02/17 13:47:15;;;;;;;17.40;9.00;;;;;;;4.96;100.00;100926.45;108976;1256;59589;-87
2023/02/17 13:50:05;;;;;;;17.50;6.70;;;;;;;4.90;100.00;100930.08;108955;1255;60136;-87
2023/02/17 13:52:54;;;;;;;13.40;6.70;;;;;;;4.81;100.00;100934.12;108919;1256;75779;-87
2023/02/17 13:55:43;;;;;;;16.20;7.60;;;;;;;4.76;100.00;100930.19;109167;1256;70151;-87
2023/02/17 13:58:37;;;;;;;13.30;6.90;;;;;;;4.76;100.00;100935.34;109146;1256;74740;-88
2023/02/17 14:01:27;;;;;;;16.40;7.10;;;;;;;4.71;100.00;100933.20;109141;1257;60576;-88
2023/02/17 14:04:36;;;;;;;15.60;7.40;;;;;;;4.66;100.00;100938.70;109155;1256;60338;-87
2023/02/17 14:07:25;;;;;;;15.70;6.80;;;;;;;4.54;100.00;100935.17;108933;1256;74602;-88
2023/02/17 14:10:17;;;;;;;13.40;7.20;;;;;;;4.52;100.00;100939.44;108973;1254;69814;-87
2023/02/17 14:13:09;;;;;;;16.90;7.90;;;;;;;4.51;100.00;100939.56;109069;1256;73829;-88
2023/02/17 14:15:58;;;;;;;17.50;6.90;;;;;;;4.50;100.00;100942.68;108950;1256;59245;-86
2023/02/17 14:18:48;;;;;;;14.20;7.80;;;;;;;4.48;100.00;100943.27;109176;1255;60048;-88
2023/02/17 14:21:42;;;;;;;15.20;7.50;;;;;;;4.48;100.00;100940.45;109166;1256;75595;-90
2023/02/17 14:24:33;;;;;;;16.10;7.20;;;;;;;4.44;100.00;100942.08;109180;1255;70375;-91
2023/02/17 14:27:22;;;;;;;12.10;5.90;;;;;;;4.39;100.00;100944.52;109190;1256;73811;-88
2023/02/17 14:30:28;;;;;;;13.70;7.10;;;;;;;4.35;100.00;100945.39;109142;1255;60357;-91
2023/02/17 14:33:24;;;;;;;15.20;7.80;;;;;;;4.23;100.00;100941.26;108993;1256;61510;-89
2023/02/17 14:36:25;;;;;;;14.10;7.00;;;;;;;4.15;100.00;100946.86;109153;1254;74634;-90
2023/02/17 14:39:15;;;;;;;16.80;7.20;;;;;;;4.15;100.00;100949.83;109134;1254;69623;-88
2023/02/17 14:42:04;;;;;;;20.30;6.90;;;;;;;4.10;100.00;100944.59;108972;1257;73534;-89
2023/02/17 14:44:53;;;;;;;14.40;7.50;;;;;;;4.08;100.00;100947.14;109140;1255;62077;-89
2023/02/17 14:47:44;;;;;;;19.80;8.20;;;;;;;4.05;100.00;100954.88;109162;1256;61196;-88
2023/02/17 14:50:34;;;;;;;13.30;6.80;;;;;;;4.03;100.00;100955.46;108965;1256;73559;-88
2023/02/17 14:53:26;;;;;;;12.80;6.50;;;;;;;3.97;100.00;100950.91;109149;1254;68739;-87
2023/02/17 14:56:33;;;;;;;19.70;8.10;;;;;;;3.92;100.00;100956.50;109157;1256;73630;-88
2023/02/17 14:59:21;;;;;;;17.20;7.60;;;;;;;3.79;100.00;100961.06;108989;1256;60492;-87
2023/02/17 15:02:17;;;;;;;16.80;7.40;;;;;;;3.74;100.00;100965.48;109175;1254;59232;-88
2023/02/17 15:05:06;;;;;;;17.50;8.10;;;;;;;3.70;100.00;100966.39;109166;1255;74451;-89
2023/02/17 15:07:57;;;;;;;16.60;7.90;;;;;;;3.64;100.00;100969.73;109168;1256;69955;-89
2023/02/17 15:10:48;;;;;;;17.50;7.90;;;;;;;3.61;100.00;100975.98;108977;1255;71416;-87
2023/02/17 15:13:37;;;;;;;22.30;9.40;;;;;;;3.55;100.00;100977.09;109091;1257;60733;-89
2023/02/17 15:16:31;;;;;;;18.30;8.20;;;;;;;3.55;100.00;100982.57;109156;1256;60028;-89
2023/02/17 15:19:20;;;;;;;16.10;7.80;;;;;;;3.59;100.00;100987.60;109183;1255;75547;-89
2023/02/17 15:22:15;;;;;;;25.80;9.60;;;;;;;3.60;100.00;100986.80;109149;1256;67891;-89
2023/02/17 15:25:13;;;;;;;24.00;9.20;;;;;;;3.58;100.00;100993.34;109065;1254;72504;-82
2023/02/17 15:28:02;;;;;;;18.20;8.20;;;;;;;3.49;100.00;100996.13;108943;1255;59368;-82
2023/02/17 15:30:53;;;;;;;21.30;9.20;;;;;;;3.44;100.00;100994.41;109074;1256;61611;-82
2023/02/17 15:33:42;;;;;;;22.50;9.20;;;;;;;3.41;100.00;100996.21;109161;1255;75899;-83
2023/02/17 15:36:31;;;;;;;22.20;8.30;;;;;;;3.42;100.00;100998.56;109144;1254;68861;-82
2023/02/17 15:39:21;;;;;;;20.50;8.30;;;;;;;3.38;100.00;101008.91;109105;1255;73712;-82
2023/02/17 15:42:12;;;;;;;19.80;8.00;;;;;;;3.40;100.00;101016.63;109091;1256;59281;-82
2023/02/17 15:45:02;;;;;;;16.50;7.50;;;;;;;3.39;100.00;101016.45;108968;1255;59437;-84
2023/02/17 15:47:56;;;;;;;18.20;8.10;;;;;;;3.36;100.00;101015.63;109171;1255;74664;-84
2023/02/17 15:50:46;;;;;;;21.40;9.40;;;;;;;3.35;100.00;101013.50;108950;1257;69315;-89
2023/02/17 15:53:35;;;;;;;22.30;8.10;;;;;;;3.38;100.00;101010.54;108870;1255;73890;-89
2023/02/17 15:56:26;;;;;;;19.80;8.70;;;;;;;3.43;100.00;101013.73;109125;1255;61414;-89
2023/02/17 15:59:18;;;;;;;23.20;10.30;;;;;;;3.43;100.00;101012.21;109110;1255;61610;-90
2023/02/17 16:02:21;;;;;;;20.60;8.60;;;;;;;3.42;100.00;101016.78;108828;1255;75739;-90
2023/02/17 16:05:13;;;;;;;38.60;14.40;;;;;;;3.46;100.00;101017.92;109017;1255;69911;-90
2023/02/17 16:08:02;;;;;;;35.20;13.70;;;;;;;3.51;100.00;101011.65;109157;1255;73417;-88
2023/02/17 16:10:54;;;;;;;24.60;10.80;;;;;;;3.54;100.00;101010.88;108930;1256;61974;-92
2023/02/17 16:13:44;;;;;;;22.80;10.10;;;;;;;3.54;100.00;101009.27;109036;1256;60343;-92
2023/02/17 16:16:32;;;;;;;21.10;9.70;;;;;;;3.54;100.00;101010.10;108940;1256;74584;-91
2023/02/17 16:19:22;;;;;;;24.40;9.80;;;;;;;3.59;100.00;101006.98;109048;1256;67350;-89
2023/02/17 16:22:11;;;;;;;23.50;10.30;;;;;;;3.59;100.00;101012.68;108928;1255;72769;-90
2023/02/17 16:25:20;;;;;;;27.50;12.30;;;;;;;3.61;100.00;101009.12;108953;1256;63198;-88
2023/02/17 16:28:19;;;;;;;26.80;12.80;;;;;;;3.60;100.00;101009.96;109062;1256;60334;-90
2023/02/17 16:31:09;;;;;;;40.10;18.00;;;;;;;3.61;100.00;101011.45;108916;1256;75892;-93
2023/02/17 16:33:59;;;;;;;26.20;13.40;;;;;;;3.61;100.00;101008.74;108857;1256;69722;-91
2023/02/17 16:36:49;;;;;;;24.60;12.00;;;;;;;3.61;100.00;101007.84;109016;1256;72324;-92
2023/02/17 16:39:38;;;;;;;25.00;11.50;;;;;;;3.60;100.00;101006.60;109014;1256;59328;-89
2023/02/17 16:42:27;;;;;;;29.20;11.30;;;;;;;3.64;100.00;101002.40;109039;1256;62407;-91
2023/02/17 16:45:18;;;;;;;26.20;11.60;;;;;;;3.63;100.00;101000.59;109054;1255;76347;-90
2023/02/17 16:48:07;;;;;;;26.00;12.00;;;;;;;3.45;100.00;100994.77;109034;1256;69658;-89
2023/02/17 16:51:01;;;;;;;23.30;11.00;;;;;;;3.44;100.00;100997.40;108909;1256;72601;-90
2023/02/17 16:53:51;;;;;;;27.10;11.50;;;;;;;3.37;100.00;101002.86;108962;1256;59845;-92
2023/02/17 16:56:47;;;;;;;24.30;12.50;;;;;;;3.37;100.00;101002.16;109063;1256;61384;-90
2023/02/17 16:59:38;;;;;;;24.60;11.90;;;;;;;3.34;100.00;100998.14;108932;1256;74100;-91
2023/02/17 17:02:27;;;;;;;23.20;11.60;;;;;;;3.31;100.00;100998.48;109057;1256;68593;-91
2023/02/17 17:05:18;;;;;;;24.30;11.00;;;;;;;3.24;100.00;101000.48;109030;1256;73988;-92
2023/02/17 17:08:15;;;;;;;27.50;11.90;;;;;;;3.20;100.00;101001.39;108838;1256;60739;-90
2023/02/17 17:11:04;;;;;;;32.50;13.10;;;;;;;3.19;100.00;101002.80;109108;1256;61467;-84
2023/02/17 17:13:54;;;;;;;29.50;14.70;;;;;;;3.20;100.00;101002.67;109017;1255;75490;-84
2023/02/17 17:16:49;;;;;;;30.90;14.00;;;;;;;3.20;100.00;101000.60;109104;1255;70510;-84
2023/02/17 17:19:38;;;;;;;27.20;12.20;;;;;;;3.16;100.00;100999.87;108871;1254;73823;-85
2023/02/17 17:22:28;;;;;;;26.00;12.50;;;;;;;3.19;100.00;101004.67;109079;1255;60787;-85
2023/02/17 17:25:17;;;;;;;24.50;11.30;;;;;;;3.25;100.00;101000.27;109074;1256;59696;-84
2023/02/17 17:28:07;;;;;;;25.30;12.30;;;;;;;3.28;100.00;100996.39;109128;1256;74470;-83
2023/02/17 17:30:56;;;;;;;71.10;28.00;;;;;;;3.33;100.00;101000.13;108927;1257;68873;-83
2023/02/17 17:33:47;;;;;;;27.50;12.30;;;;;;;3.38;100.00;101001.77;109128;1256;73782;-83
2023/02/17 17:36:44;;;;;;;25.00;11.30;;;;;;;3.38;100.00;101001.28;109007;1256;59211;-84
2023/02/17 17:39:38;;;;;;;55.40;27.80;;;;;;;3.40;100.00;100998.93;108889;1256;61659;-83
2023/02/17 17:42:28;;;;;;;55.40;24.70;;;;;;;3.42;100.00;100995.09;108961;1257;75592;-84
2023/02/17 17:45:17;;;;;;;62.80;25.50;;;;;;;3.47;100.00;100991.02;109007;1253;69301;-85
2023/02/17 17:48:12;;;;;;;37.30;17.90;;;;;;;3.43;100.00;100981.45;108981;1254;74000;-85
2023/02/17 17:51:02;;;;;;;35.20;15.50;;;;;;;3.41;100.00;100984.05;108959;1256;59582;-85
2023/02/17 17:53:51;;;;;;;33.90;16.40;;;;;;;3.45;100.00;100982.27;108998;1255;61558;-89
2023/02/17 17:56:41;;;;;;;33.30;15.10;;;;;;;3.49;100.00;100981.86;108964;1257;75617;-89
2023/02/17 17:59:30;;;;;;;30.30;12.90;;;;;;;3.49;100.00;100979.16;108959;1256;68604;-90
2023/02/17 18:02:24;;;;;;;24.70;12.60;;;;;;;3.50;100.00;100980.48;109052;1256;73589;-90
2023/02/17 18:05:13;;;;;;;27.30;12.40;;;;;;;3.49;100.00;100981.27;109010;1256;60474;-88
2023/02/17 18:08:02;;;;;;;41.70;16.60;;;;;;;3.50;100.00;100980.14;109149;1255;60353;-90
2023/02/17 18:10:51;;;;;;;39.20;16.90;;;;;;;3.46;100.00;100976.15;108908;1256;75477;-92
2023/02/17 18:13:42;;;;;;;89.00;33.60;;;;;;;3.45;100.00;100972.70;109034;1255;69587;-89
2023/02/17 18:16:31;;;;;;;102.60;36.90;;;;;;;3.42;100.00;100966.83;108982;1256;72565;-90
2023/02/17 18:19:23;;;;;;;53.40;23.40;;;;;;;3.38;100.00;100956.16;108949;1255;60498;-90
2023/02/17 18:22:13;;;;;;;50.10;21.60;;;;;;;3.42;100.00;100959.80;109004;1255;61776;-91
2023/02/17 18:25:07;;;;;;;49.90;22.10;;;;;;;3.41;100.00;100959.02;109133;1254;74994;-91
2023/02/17 18:27:56;;;;;;;31.90;16.10;;;;;;;3.40;100.00;100960.07;109058;1256;69583;-91
2023/02/17 18:30:46;;;;;;;33.80;15.70;;;;;;;3.39;100.00;100957.77;109079;1256;72450;-89
2023/02/17 18:33:36;;;;;;;41.00;19.60;;;;;;;3.40;100.00;100960.65;109110;1256;61372;-88
2023/02/17 18:36:26;;;;;;;31.40;15.40;;;;;;;3.40;100.00;100956.66;109152;1255;60901;-91
2023/02/17 18:39:16;;;;;;;31.20;14.70;;;;;;;3.36;100.00;100959.48;108913;1257;76157;-89
2023/02/17 18:42:05;;;;;;;23.60;11.30;;;;;;;3.32;100.00;100959.79;109067;1256;70835;-90
2023/02/17 18:44:55;;;;;;;30.10;13.50;;;;;;;3.26;100.00;100959.00;109105;1255;73671;-89
2023/02/17 18:47:45;;;;;;;29.80;13.40;;;;;;;3.18;100.00;100962.72;109123;1255;61600;-90
2023/02/17 18:50:34;;;;;;;26.10;11.60;;;;;;;3.22;100.00;100959.62;108957;1255;60340;-93
2023/02/17 18:53:23;;;;;;;31.40;12.50;;;;;;;3.21;100.00;100961.37;109032;1256;73787;-90
2023/02/17 18:56:15;;;;;;;30.40;14.60;;;;;;;3.17;100.00;100960.35;109109;1255;71166;-89
2023/02/17 18:59:04;;;;;;;24.80;13.10;;;;;;;3.21;100.00;100962.65;109142;1255;72111;-90
2023/02/17 19:01:53;;;;;;;28.80;13.10;;;;;;;3.27;100.00;100954.48;109136;1254;62170;-92
2023/02/17 19:04:45;;;;;;;51.10;19.30;;;;;;;3.26;100.00;100950.90;109072;1256;59896;-89
2023/02/17 19:07:34;;;;;;;34.40;15.70;;;;;;;3.25;100.00;100949.83;109074;1256;75847;-91
2023/02/17 19:10:23;;;;;;;27.10;12.20;;;;;;;3.24;100.00;100948.98;109164;1253;68830;-91
2023/02/17 19:13:12;;;;;;;24.70;10.60;;;;;;;3.23;100.00;100946.97;109151;1256;71416;-91
2023/02/17 19:16:07;;;;;;;26.00;12.50;;;;;;;3.24;100.00;100942.40;108996;1255;62380;-90
2023/02/17 19:18:56;;;;;;;28.80;12.30;;;;;;;3.22;100.00;100944.23;109021;1255;61585;-91
2023/02/17 19:21:46;;;;;;;34.80;15.10;;;;;;;3.22;100.00;100941.95;109096;1255;75627;-90
2023/02/17 19:24:35;;;;;;;37.60;14.20;;;;;;;3.11;100.00;100933.97;109059;1256;69963;-90
2023/02/17 19:27:24;;;;;;;31.90;12.90;;;;;;;3.11;100.00;100930.36;108916;1255;72642;-91
2023/02/17 19:30:13;;;;;;;35.40;14.40;;;;;;;3.11;100.00;100927.52;109092;1257;62622;-91
2023/02/17 19:33:07;;;;;;;33.00;12.00;;;;;;;3.13;100.00;100922.20;109148;1256;61195;-90
2023/02/17 19:35:58;;;;;;;37.20;13.70;;;;;;;3.11;100.00;100914.73;109126;1256;75858;-90
2023/02/17 19:38:48;;;;;;;33.90;13.50;;;;;;;3.08;100.00;100909.73;109081;1256;69665;-90
2023/02/17 19:41:37;;;;;;;44.90;18.80;;;;;;;3.13;100.00;100908.48;108970;1255;73554;-89
2023/02/17 19:44:26;;;;;;;46.50;16.80;;;;;;;3.12;100.00;100908.13;109078;1256;62765;-89
2023/02/17 19:47:15;;;;;;;43.80;19.50;;;;;;;3.14;100.00;100903.66;109096;1256;60096;-90
2023/02/17 19:50:05;;;;;;;71.50;26.80;;;;;;;3.11;100.00;100899.36;109155;1258;75656;-91
2023/02/17 19:52:54;;;;;;;52.70;20.20;;;;;;;3.06;100.00;100899.53;109140;1256;68822;-92
2023/02/17 19:55:43;;;;;;;47.20;18.10;;;;;;;2.91;100.00;100897.73;109091;1255;73918;-89
2023/02/17 19:58:35;;;;;;;37.20;16.70;;;;;;;2.90;100.00;100895.85;109131;1256;62366;-90
2023/02/17 20:01:26;;;;;;;41.80;18.30;;;;;;;2.89;100.00;100888.27;109120;1256;62265;-90
2023/02/17 20:04:15;;;;;;;41.20;18.20;;;;;;;2.78;100.00;100885.98;109021;1255;73901;-91
2023/02/17 20:07:04;;;;;;;39.50;17.40;;;;;;;2.76;100.00;100882.32;109015;1257;68363;-91
2023/02/17 20:09:58;;;;;;;38.40;17.20;;;;;;;2.79;100.00;100884.25;109079;1254;72683;-90
2023/02/17 20:12:47;;;;;;;41.60;17.70;;;;;;;2.82;100.00;100881.36;108997;1254;61555;-91
2023/02/17 20:15:36;;;;;;;33.00;14.80;;;;;;;2.83;100.00;100886.34;109122;1254;59711;-92
2023/02/17 20:18:25;;;;;;;34.10;14.60;;;;;;;2.79;100.00;100882.60;109106;1254;75596;-91
2023/02/17 20:21:22;;;;;;;35.50;14.00;;;;;;;2.75;100.00;100879.08;109108;1255;67797;-88
2023/02/17 20:24:12;;;;;;;36.70;14.50;;;;;;;2.77;100.00;100872.88;108677;1256;286261;-91
2023/02/17 20:27:02;;;;;;;38.00;15.10;;;;;;;2.78;100.00;100866.73;109094;1255;62161;-91
2023/02/17 20:29:52;;;;;;;31.70;14.00;;;;;;;2.83;100.00;100858.69;109067;1257;61517;-91
2023/02/17 20:32:41;;;;;;;36.30;16.30;;;;;;;2.81;100.00;100853.64;109103;1256;74329;-91
2023/02/17 20:35:34;;;;;;;35.10;15.50;;;;;;;2.84;100.00;100846.30;109076;1256;69834;-90
2023/02/17 20:38:24;;;;;;;38.30;16.20;;;;;;;2.84;100.00;100839.65;109059;1255;72492;-91
2023/02/17 20:41:15;;;;;;;50.40;19.70;;;;;;;2.78;100.00;100840.05;108943;1254;61218;-92
2023/02/17 20:44:05;;;;;;;36.90;16.80;;;;;;;2.73;100.00;100840.45;109133;1255;60393;-87
2023/02/17 20:46:54;;;;;;;43.20;18.80;;;;;;;2.65;100.00;100831.77;109167;1256;75767;-88
2023/02/17 20:49:43;;;;;;;43.60;17.00;;;;;;;2.64;100.00;100836.93;109150;1255;70303;-92
2023/02/17 20:52:33;;;;;;;43.30;17.90;;;;;;;2.63;100.00;100837.20;109088;1257;72536;-92
2023/02/17 20:55:23;;;;;;;45.00;19.30;;;;;;;2.71;100.00;100835.81;109066;1255;61130;-90
2023/02/17 20:58:39;;;;;;;43.20;18.20;;;;;;;2.68;100.00;100839.07;109017;1255;61104;-89
2023/02/17 21:01:31;;;;;;;52.80;20.60;;;;;;;2.74;100.00;100835.00;109145;1255;75736;-92
2023/02/17 21:04:22;;;;;;;49.30;18.10;;;;;;;2.81;100.00;100828.77;109112;1254;69909;-90
2023/02/17 21:07:11;;;;;;;62.00;22.30;;;;;;;2.81;100.00;100823.63;109135;1255;73828;-90
2023/02/17 21:10:01;;;;;;;47.40;19.30;;;;;;;2.74;100.00;100822.96;109140;1254;59230;-92
2023/02/17 21:12:50;;;;;;;68.10;26.20;;;;;;;2.73;100.00;100817.36;108974;1255;61463;-91
2023/02/17 21:15:43;;;;;;;84.70;32.90;;;;;;;2.67;100.00;100818.45;109051;1256;75453;-92
2023/02/17 21:18:34;;;;;;;78.70;33.90;;;;;;;2.71;100.00;100816.42;108949;1257;68373;-91
2023/02/17 21:21:23;;;;;;;60.40;24.00;;;;;;;2.66;100.00;100812.22;108938;1256;72761;-92
2023/02/17 21:24:12;;;;;;;57.70;21.20;;;;;;;2.65;100.00;100802.36;109086;1255;60502;-92
2023/02/17 21:27:01;;;;;;;56.50;20.70;;;;;;;2.81;100.00;100799.23;108864;1257;60849;-90
2023/02/17 21:29:50;;;;;;;59.70;20.20;;;;;;;2.84;100.00;100793.44;108924;1254;75404;-91
2023/02/17 21:32:39;;;;;;;76.60;24.10;;;;;;;2.82;100.00;100790.89;109135;1256;69969;-91
2023/02/17 21:35:28;;;;;;;49.30;17.70;;;;;;;2.84;100.00;100789.29;109053;1255;74049;-93
2023/02/17 21:38:20;;;;;;;69.80;23.30;;;;;;;2.84;100.00;100782.73;109034;1255;60918;-91
2023/02/17 21:41:12;;;;;;;52.20;19.40;;;;;;;2.85;100.00;100780.73;109108;1255;61051;-91
2023/02/17 21:47:09;;;;;;;62.30;21.00;;;;;;;2.79;100.00;100773.30;108993;1255;70151;-91
2023/02/17 21:49:58;;;;;;;53.40;18.70;;;;;;;2.81;100.00;100774.24;109068;1257;73668;-89
2023/02/17 21:52:55;;;;;;;42.30;17.60;;;;;;;2.85;100.00;100771.23;109130;1257;60972;-90
2023/02/17 21:55:45;;;;;;;53.60;17.10;;;;;;;2.89;100.00;100766.33;109139;1255;60285;-92
2023/02/17 21:58:34;;;;;;;64.00;20.10;;;;;;;2.83;100.00;100763.06;109111;1257;74863;-91
2023/02/17 22:01:24;;;;;;;36.90;15.50;;;;;;;2.76;100.00;100759.35;109109;1257;70155;-89
2023/02/17 22:04:14;;;;;;;51.90;20.80;;;;;;;2.78;100.00;100753.38;108971;1256;73598;-89
2023/02/17 22:07:03;;;;;;;130.20;48.90;;;;;;;2.79;100.00;100743.58;108911;1256;60932;-89
2023/02/17 22:09:52;;;;;;;49.90;20.90;;;;;;;2.80;100.00;100739.88;109137;1257;61190;-89
2023/02/17 22:12:43;;;;;;;42.20;17.90;;;;;;;2.81;100.00;100737.17;109171;1256;75455;-92
2023/02/17 22:15:32;;;;;;;41.00;16.30;;;;;;;2.79;100.00;100728.79;109138;1255;68914;-92
2023/02/17 22:18:23;;;;;;;48.30;17.20;;;;;;;2.79;100.00;100718.58;109155;1254;72870;-90
2023/02/17 22:21:12;;;;;;;47.70;15.50;;;;;;;2.84;100.00;100712.84;108923;1256;60680;-91
2023/02/17 22:24:02;;;;;;;47.90;16.00;;;;;;;2.84;100.00;100702.64;109058;1255;62053;-90
2023/02/17 22:26:51;;;;;;;55.80;19.20;;;;;;;2.77;100.00;100698.05;109120;1257;75734;-91
2023/02/17 22:29:40;;;;;;;49.30;17.10;;;;;;;2.75;100.00;100688.27;109077;1257;70004;-88
